Flugwetter

[source: ADDS]
METAR
LOWL 132350Z AUTO 13003KT 9999 FEW070 BKN080 M01/M03 Q1001 =
TAF
TAF LOWL 132315Z 1400/1424 26005KT 8000 SCT060 BKN090 TX06/1413Z TNM01/1402Z TEMPO 1402/1409 VRB02KT -RA BKN050 PROB40 TEMPO 1402/1407 4500 -FZRA TEMPO 1408/1414 28020G30KT -SHRA BKN050 BECMG 1417/1419 VRB02KT 9999 BKN050 PROB40 TEMPO 1420/1424 7000 SHRA =